createdAt,value
2017-04-25T00:00:41.628Z,11.20
2017-04-25T00:01:41.539Z,11.20
2017-04-25T00:02:41.457Z,11.30
2017-04-25T00:03:41.337Z,11.30
2017-04-25T00:04:41.245Z,11.70
2017-04-25T00:05:41.141Z,11.20
2017-04-25T00:06:41.045Z,11.40
2017-04-25T00:07:40.979Z,11.20
2017-04-25T00:09:46.193Z,11.20
2017-04-25T00:10:46.098Z,11.30
2017-04-25T00:11:45.990Z,11.40
2017-04-25T00:12:45.936Z,11.10
2017-04-25T00:13:45.838Z,11.20
2017-04-25T00:14:45.729Z,10.90
2017-04-25T00:15:45.614Z,11.20
2017-04-25T00:16:45.519Z,10.90
2017-04-25T00:17:45.440Z,10.90
2017-04-25T00:18:45.330Z,10.80
2017-04-25T00:19:45.217Z,10.80
2017-04-25T00:20:45.890Z,10.70
2017-04-25T00:21:45.784Z,10.40
2017-04-25T00:22:46.910Z,10.80
2017-04-25T00:23:46.815Z,10.80
2017-04-25T00:24:46.702Z,10.90
2017-04-25T00:25:46.605Z,10.70
2017-04-25T00:26:47.345Z,10.40
2017-04-25T00:27:47.270Z,10.50
2017-04-25T00:28:47.138Z,10.50
2017-04-25T00:29:47.040Z,10.40
2017-04-25T00:30:52.869Z,10.10
2017-04-25T00:31:53.747Z,10.10
2017-04-25T00:32:53.667Z,10.20
2017-04-25T00:33:53.617Z,10.10
2017-04-25T00:34:54.245Z,9.90
2017-04-25T00:35:54.108Z,10.10
2017-04-25T00:36:54.001Z,10.10
2017-04-25T00:37:53.941Z,10.00
2017-04-25T00:38:54.722Z,10.00
2017-04-25T00:39:54.654Z,10.00
2017-04-25T00:40:54.520Z,10.10
2017-04-25T00:41:54.426Z,9.90
2017-04-25T00:42:54.346Z,9.90
2017-04-25T00:43:54.244Z,9.90
2017-04-25T00:44:54.512Z,10.00
2017-04-25T00:45:55.132Z,9.70
2017-04-25T00:46:55.025Z,10.10
2017-04-25T00:47:55.662Z,9.80
2017-04-25T00:48:55.529Z,10.00
2017-04-25T00:49:55.409Z,10.10
2017-04-25T00:50:55.317Z,9.80
2017-04-25T00:51:55.200Z,10.10
2017-04-25T00:52:55.089Z,9.60
2017-04-25T00:53:55.007Z,9.90
2017-04-25T00:54:54.889Z,9.80
2017-04-25T00:55:54.773Z,9.70
2017-04-25T00:56:55.381Z,9.80
2017-04-25T00:57:56.006Z,9.50
2017-04-25T00:58:55.877Z,9.60
2017-04-25T00:59:55.747Z,9.40
2017-04-25T01:00:55.644Z,9.40
2017-04-25T01:01:56.310Z,9.30
2017-04-25T01:02:56.218Z,9.30
2017-04-25T01:03:56.276Z,9.30
2017-04-25T01:04:56.921Z,9.40
2017-04-25T01:05:56.805Z,9.20
2017-04-25T01:06:56.740Z,9.30
2017-04-25T01:07:56.646Z,9.20
2017-04-25T01:08:56.560Z,9.20
2017-04-25T01:09:56.457Z,9.10
2017-04-25T01:10:56.371Z,8.90
2017-04-25T01:11:56.274Z,8.80
2017-04-25T01:12:56.234Z,8.80
2017-04-25T01:13:56.973Z,8.80
2017-04-25T01:14:56.862Z,8.70
2017-04-25T01:15:56.733Z,8.80
2017-04-25T01:16:56.617Z,8.80
2017-04-25T01:17:56.494Z,8.90
2017-04-25T01:18:56.395Z,8.90
2017-04-25T01:19:56.328Z,8.80
2017-04-25T01:20:56.286Z,8.80
2017-04-25T01:21:56.877Z,8.50
2017-04-25T01:23:56.893Z,8.60
2017-04-25T01:24:56.814Z,8.60
2017-04-25T01:25:57.461Z,8.40
2017-04-25T01:26:57.488Z,8.70
2017-04-25T01:27:57.373Z,8.30
2017-04-25T01:28:57.282Z,8.80
2017-04-25T01:29:57.196Z,8.60
2017-04-25T01:30:57.119Z,8.80
2017-04-25T01:31:57.008Z,8.40
2017-04-25T01:32:56.902Z,8.60
2017-04-25T01:33:56.790Z,8.70
2017-04-25T01:34:56.721Z,8.50
2017-04-25T01:35:56.638Z,8.60
2017-04-25T01:36:56.564Z,8.40
2017-04-25T01:37:56.436Z,8.40
2017-04-25T01:38:56.343Z,8.40
2017-04-25T01:39:56.263Z,8.20
2017-04-25T01:40:56.325Z,8.40
2017-04-25T01:41:56.213Z,8.10
2017-04-25T01:42:56.858Z,8.30
2017-04-25T01:43:56.745Z,8.10
2017-04-25T01:44:56.702Z,7.90
2017-04-25T01:45:56.593Z,8.20
2017-04-25T01:46:56.537Z,8.10
2017-04-25T01:47:57.170Z,8.10
2017-04-25T01:48:57.891Z,8.10
2017-04-25T01:49:58.543Z,7.80
2017-04-25T01:50:58.453Z,8.10
2017-04-25T01:51:58.373Z,8.00
2017-04-25T01:52:58.262Z,7.90
2017-04-25T01:53:58.150Z,7.90
2017-04-25T01:54:58.091Z,7.70
2017-04-25T01:55:57.993Z,7.90
2017-04-25T01:56:58.309Z,7.70
2017-04-25T01:57:58.221Z,7.60
2017-04-25T01:58:58.113Z,8.00
2017-04-25T01:59:58.007Z,7.90
2017-04-25T02:00:57.958Z,7.80
2017-04-25T02:01:57.837Z,7.70
2017-04-25T02:02:57.753Z,7.50
2017-04-25T02:03:57.740Z,7.80
2017-04-25T02:04:57.635Z,7.40
2017-04-25T02:05:57.533Z,7.80
2017-04-25T02:06:57.425Z,7.50
2017-04-25T02:07:57.321Z,7.40
2017-04-25T02:08:57.234Z,8.00
2017-04-25T02:09:57.765Z,7.90
2017-04-25T02:10:57.669Z,7.80
2017-04-25T02:11:57.593Z,7.80
2017-04-25T02:12:57.531Z,7.60
2017-04-25T02:13:57.454Z,7.70
2017-04-25T02:14:57.401Z,7.50
2017-04-25T02:15:57.334Z,7.40
2017-04-25T02:16:57.241Z,7.60
2017-04-25T02:17:57.180Z,7.50
2017-04-25T02:18:57.832Z,7.50
2017-04-25T02:19:57.815Z,7.60
2017-04-25T02:20:57.767Z,7.70
2017-04-25T02:21:57.720Z,7.50
2017-04-25T02:22:57.648Z,7.70
2017-04-25T02:23:57.564Z,7.50
2017-04-25T02:24:57.501Z,7.50
2017-04-25T02:25:57.434Z,7.50
2017-04-25T02:26:58.070Z,7.50
2017-04-25T02:27:58.026Z,7.80
2017-04-25T02:28:57.933Z,7.50
2017-04-25T02:29:58.601Z,7.70
2017-04-25T02:30:58.533Z,8.10
2017-04-25T02:31:58.473Z,7.70
2017-04-25T02:32:59.137Z,7.80
2017-04-25T02:33:59.541Z,8.00
2017-04-25T02:35:00.585Z,7.80
2017-04-25T02:36:01.109Z,7.80
2017-04-25T02:37:01.008Z,8.00
2017-04-25T02:38:00.909Z,7.80
2017-04-25T02:39:00.837Z,8.10
2017-04-25T02:40:00.796Z,8.00
2017-04-25T02:41:01.444Z,7.70
2017-04-25T02:42:01.356Z,7.70
2017-04-25T02:43:01.245Z,7.90
2017-04-25T02:44:01.150Z,7.70
2017-04-25T02:45:01.062Z,7.80
2017-04-25T02:46:01.021Z,7.80
2017-04-25T02:47:01.674Z,7.70
2017-04-25T02:48:01.581Z,8.00
2017-04-25T02:49:01.605Z,7.70
2017-04-25T02:50:01.553Z,7.60
2017-04-25T02:51:02.262Z,7.50
2017-04-25T02:52:02.205Z,7.90
2017-04-25T02:53:02.854Z,7.80
2017-04-25T02:54:02.794Z,7.70
2017-04-25T02:55:02.709Z,7.40
2017-04-25T02:56:02.649Z,7.60
2017-04-25T02:57:02.629Z,7.40
2017-04-25T02:58:02.537Z,7.50
2017-04-25T02:59:02.586Z,7.40
2017-04-25T03:00:02.520Z,7.40
2017-04-25T03:01:02.554Z,7.60
2017-04-25T03:03:02.638Z,7.60
2017-04-25T03:04:02.578Z,7.70
2017-04-25T03:05:04.611Z,7.50
2017-04-25T03:06:04.637Z,7.50
2017-04-25T03:08:12.404Z,7.20
2017-04-25T03:09:12.343Z,7.40
2017-04-25T03:10:13.094Z,7.30
2017-04-25T03:11:13.782Z,7.30
2017-04-25T03:12:13.686Z,7.30
2017-04-25T03:13:14.353Z,7.40
2017-04-25T03:14:14.278Z,7.30
2017-04-25T03:15:14.287Z,7.10
2017-04-25T03:16:14.304Z,7.20
2017-04-25T03:17:14.224Z,7.40
2017-04-25T03:18:14.137Z,7.30
2017-04-25T03:19:14.037Z,7.10
2017-04-25T03:20:15.599Z,6.90
2017-04-25T03:21:17.264Z,7.20
2017-04-25T03:22:17.880Z,7.30
2017-04-25T03:23:17.802Z,7.40
2017-04-25T03:24:20.559Z,7.00
2017-04-25T03:25:22.063Z,7.40
2017-04-25T03:26:21.975Z,7.00
2017-04-25T03:27:21.877Z,7.00
2017-04-25T03:28:21.778Z,7.20
2017-04-25T03:29:22.506Z,7.30
2017-04-25T03:30:22.409Z,7.10
2017-04-25T03:31:22.343Z,7.00
2017-04-25T03:32:23.027Z,7.00
2017-04-25T03:33:23.473Z,6.70
2017-04-25T03:34:24.088Z,7.00
2017-04-25T03:35:24.732Z,6.70
2017-04-25T03:36:25.370Z,6.80
2017-04-25T03:37:25.268Z,7.00
2017-04-25T03:38:25.160Z,7.10
2017-04-25T03:39:25.031Z,6.80
2017-04-25T03:41:34.471Z,7.10
2017-04-25T03:42:34.371Z,6.70
2017-04-25T03:43:34.258Z,6.90
2017-04-25T03:44:34.136Z,6.70
2017-04-25T03:45:34.077Z,7.10
2017-04-25T03:46:35.500Z,6.80
2017-04-25T03:47:35.381Z,6.90
2017-04-25T03:48:35.297Z,6.80
2017-04-25T03:49:36.120Z,6.80
2017-04-25T03:50:35.996Z,7.00
2017-04-25T03:51:35.894Z,6.90
2017-04-25T03:52:35.829Z,6.80
2017-04-25T03:53:35.685Z,7.00
2017-04-25T03:54:38.249Z,6.90
2017-04-25T03:55:38.134Z,6.80
2017-04-25T03:56:38.047Z,6.70
2017-04-25T03:57:38.410Z,6.70
2017-04-25T03:58:38.313Z,6.70
2017-04-25T03:59:38.222Z,6.70
2017-04-25T04:00:38.129Z,6.70
2017-04-25T04:01:38.493Z,6.80
2017-04-25T04:02:38.385Z,6.90
2017-04-25T04:03:38.322Z,6.90
2017-04-25T04:04:40.265Z,6.70
2017-04-25T04:05:41.895Z,6.80
2017-04-25T04:07:41.985Z,6.80
2017-04-25T04:08:41.986Z,6.90
2017-04-25T04:09:41.937Z,6.90
2017-04-25T04:10:43.958Z,6.90
2017-04-25T04:11:43.873Z,6.80
2017-04-25T04:12:43.838Z,6.70
2017-04-25T04:13:43.777Z,6.80
2017-04-25T04:14:43.827Z,6.60
2017-04-25T04:15:44.498Z,6.70
2017-04-25T04:16:44.417Z,6.80
2017-04-25T04:17:44.371Z,6.90
2017-04-25T04:18:44.301Z,6.70
2017-04-25T04:19:44.235Z,6.70
2017-04-25T04:20:44.184Z,6.90
2017-04-25T04:21:44.109Z,6.90
2017-04-25T04:22:44.036Z,6.60
2017-04-25T04:23:44.058Z,6.80
2017-04-25T04:24:43.982Z,6.60
2017-04-25T04:25:44.649Z,6.90
2017-04-25T04:26:44.594Z,6.80
2017-04-25T04:27:45.448Z,6.70
2017-04-25T04:28:46.140Z,6.80
2017-04-25T04:29:46.108Z,6.70
2017-04-25T04:30:46.069Z,6.80
2017-04-25T04:31:46.789Z,6.70
2017-04-25T04:32:47.485Z,6.90
2017-04-25T04:33:47.449Z,6.70
2017-04-25T04:34:47.419Z,6.70
2017-04-25T04:35:47.329Z,6.80
2017-04-25T04:36:48.029Z,6.70
2017-04-25T04:37:49.156Z,6.90
2017-04-25T04:38:49.112Z,6.80
2017-04-25T04:39:50.628Z,6.70
2017-04-25T04:40:51.338Z,6.70
2017-04-25T04:41:52.752Z,6.90
2017-04-25T04:42:52.714Z,6.70
2017-04-25T04:43:53.385Z,6.80
2017-04-25T04:44:53.324Z,6.90
2017-04-25T04:45:54.023Z,6.80
2017-04-25T04:46:53.932Z,6.70
2017-04-25T04:47:53.910Z,7.00
2017-04-25T04:48:54.630Z,6.80
2017-04-25T04:49:54.557Z,6.70
2017-04-25T04:50:55.688Z,6.90
2017-04-25T04:51:55.609Z,6.80
2017-04-25T04:52:55.582Z,6.70
2017-04-25T04:53:55.537Z,6.70
2017-04-25T04:54:56.237Z,6.90
2017-04-25T04:55:56.150Z,6.80
2017-04-25T04:56:56.083Z,6.80
2017-04-25T04:57:56.711Z,6.90
2017-04-25T04:58:56.700Z,7.20
2017-04-25T04:59:57.874Z,7.00
2017-04-25T05:00:58.060Z,7.10
2017-04-25T05:01:58.714Z,7.10
2017-04-25T05:02:58.649Z,7.10
2017-04-25T05:03:58.579Z,6.90
2017-04-25T05:04:59.270Z,7.00
2017-04-25T05:05:59.905Z,7.20
2017-04-25T05:07:00.246Z,7.10
2017-04-25T05:08:00.281Z,7.30
2017-04-25T05:09:02.024Z,7.10
2017-04-25T05:10:03.075Z,7.10
2017-04-25T05:11:03.016Z,7.10
2017-04-25T05:13:03.844Z,7.10
2017-04-25T05:14:05.987Z,7.00
2017-04-25T05:15:05.961Z,7.30
2017-04-25T05:16:06.968Z,7.50
2017-04-25T05:17:08.145Z,7.40
2017-04-25T05:18:09.252Z,7.50
2017-04-25T05:19:09.186Z,7.40
2017-04-25T05:20:09.117Z,7.40
2017-04-25T05:21:09.815Z,7.60
2017-04-25T05:22:09.755Z,7.40
2017-04-25T05:23:11.262Z,7.50
2017-04-25T05:24:11.738Z,7.40
2017-04-25T05:25:11.634Z,7.50
2017-04-25T05:26:11.525Z,7.50
2017-04-25T05:27:12.176Z,7.60
2017-04-25T05:28:12.169Z,7.40
2017-04-25T05:29:12.842Z,7.50
2017-04-25T05:30:12.761Z,7.60
2017-04-25T05:31:12.705Z,7.40
2017-04-25T05:32:12.707Z,7.70
2017-04-25T05:33:13.394Z,7.80
2017-04-25T05:34:13.317Z,7.40
2017-04-25T05:35:13.977Z,7.80
2017-04-25T05:36:13.866Z,7.70
2017-04-25T05:37:13.810Z,7.60
2017-04-25T05:38:13.806Z,7.80
2017-04-25T05:39:13.745Z,7.70
2017-04-25T05:40:13.669Z,7.80
2017-04-25T05:41:14.334Z,7.90
2017-04-25T05:42:14.260Z,7.80
2017-04-25T05:43:14.338Z,7.70
2017-04-25T05:44:14.225Z,8.00
2017-04-25T05:45:14.227Z,7.90
2017-04-25T05:46:14.893Z,7.80
2017-04-25T05:47:14.783Z,7.90
2017-04-25T05:48:14.713Z,8.00
2017-04-25T05:49:14.589Z,7.80
2017-04-25T05:50:14.566Z,8.10
2017-04-25T05:51:15.205Z,7.80
2017-04-25T05:52:15.081Z,7.70
2017-04-25T05:53:15.771Z,7.80
2017-04-25T05:54:15.720Z,7.80
2017-04-25T05:55:16.326Z,7.70
2017-04-25T05:56:17.014Z,7.70
2017-04-25T05:57:16.890Z,7.70
2017-04-25T05:58:16.811Z,7.80
2017-04-25T05:59:16.681Z,8.00
2017-04-25T06:00:16.549Z,7.70
2017-04-25T06:01:16.442Z,7.70
2017-04-25T06:02:16.387Z,7.70
2017-04-25T06:03:16.337Z,7.70
2017-04-25T06:04:16.293Z,7.80
2017-04-25T06:05:16.929Z,8.00
2017-04-25T06:06:16.832Z,8.00
2017-04-25T06:07:17.548Z,8.00
2017-04-25T06:08:18.210Z,7.70
2017-04-25T06:09:18.133Z,7.80
2017-04-25T06:10:18.067Z,8.00
2017-04-25T06:11:17.957Z,8.00
2017-04-25T06:12:17.826Z,7.90
2017-04-25T06:13:17.766Z,7.80
2017-04-25T06:14:17.662Z,7.80
2017-04-25T06:16:17.664Z,7.70
2017-04-25T06:17:17.870Z,7.70
2017-04-25T06:18:17.772Z,7.70
2017-04-25T06:19:17.682Z,7.90
2017-04-25T06:20:17.621Z,7.80
2017-04-25T06:21:18.308Z,7.80
2017-04-25T06:22:18.241Z,7.80
2017-04-25T06:23:18.874Z,7.70
2017-04-25T06:24:19.562Z,7.80
2017-04-25T06:25:19.506Z,7.70
2017-04-25T06:26:20.187Z,7.80
2017-04-25T06:27:20.141Z,7.90
2017-04-25T06:28:20.814Z,7.80
2017-04-25T06:29:20.792Z,7.80
2017-04-25T06:30:20.742Z,8.40
2017-04-25T06:31:20.676Z,8.20
2017-04-25T06:32:21.327Z,8.20
2017-04-25T06:33:21.254Z,8.40
2017-04-25T06:34:21.240Z,8.20
2017-04-25T06:35:21.383Z,8.20
2017-04-25T06:36:21.323Z,8.30
2017-04-25T06:37:22.078Z,7.80
2017-04-25T06:38:22.002Z,8.00
2017-04-25T06:39:21.951Z,8.40
2017-04-25T06:40:22.641Z,8.00
2017-04-25T06:41:22.585Z,8.20
2017-04-25T06:42:23.299Z,8.40
2017-04-25T06:43:26.641Z,8.20
2017-04-25T06:44:26.672Z,8.10
2017-04-25T06:45:27.445Z,8.20
2017-04-25T06:46:27.368Z,7.90
2017-04-25T06:47:27.312Z,7.90
2017-04-25T06:48:27.224Z,7.80
2017-04-25T06:49:27.174Z,7.70
2017-04-25T06:50:27.085Z,7.80
2017-04-25T06:51:27.005Z,7.90
2017-04-25T06:52:27.166Z,7.40
2017-04-25T06:53:27.814Z,7.40
2017-04-25T06:54:27.824Z,7.00
2017-04-25T06:55:27.798Z,7.20
2017-04-25T06:56:28.487Z,7.00
2017-04-25T06:57:28.413Z,6.60
2017-04-25T06:58:29.082Z,6.30
2017-04-25T06:59:29.041Z,6.50
2017-04-25T07:00:29.745Z,6.30
2017-04-25T07:01:29.733Z,6.50
2017-04-25T07:02:39.017Z,6.50
2017-04-25T07:03:38.961Z,6.20
2017-04-25T07:04:38.941Z,6.40
2017-04-25T07:05:38.890Z,6.50
2017-04-25T07:06:38.845Z,6.40
2017-04-25T07:07:38.786Z,6.70
2017-04-25T07:08:38.905Z,6.80
2017-04-25T07:09:38.833Z,6.80
2017-04-25T07:10:39.495Z,6.80
2017-04-25T07:11:39.405Z,6.70
2017-04-25T07:12:39.710Z,7.20
2017-04-25T07:13:39.669Z,7.20
2017-04-25T07:14:40.311Z,7.10
2017-04-25T07:15:40.985Z,7.10
2017-04-25T07:16:40.938Z,7.10
2017-04-25T07:17:41.667Z,7.20
2017-04-25T07:18:42.301Z,7.10
2017-04-25T07:19:42.906Z,7.40
2017-04-25T07:20:42.861Z,7.50
2017-04-25T07:21:42.765Z,7.50
2017-04-25T07:22:42.722Z,7.80
2017-04-25T07:23:43.426Z,8.00
2017-04-25T07:24:44.053Z,8.00
2017-04-25T07:25:44.742Z,7.80
2017-04-25T07:26:44.672Z,7.80
2017-04-25T07:27:45.377Z,8.10
2017-04-25T07:28:45.269Z,8.00
2017-04-25T07:29:45.197Z,8.10
2017-04-25T07:30:45.146Z,8.30
2017-04-25T07:31:45.071Z,8.10
2017-04-25T07:32:44.956Z,8.50
2017-04-25T07:33:44.890Z,8.50
2017-04-25T07:34:44.800Z,8.50
2017-04-25T07:35:44.717Z,8.70
2017-04-25T07:36:44.645Z,8.80
2017-04-25T07:37:45.392Z,8.80
2017-04-25T07:38:46.185Z,8.90
2017-04-25T07:39:46.077Z,9.10
2017-04-25T07:40:46.054Z,9.10
2017-04-25T07:41:45.953Z,9.20
2017-04-25T07:42:45.866Z,9.70
2017-04-25T07:43:45.816Z,9.60
2017-04-25T07:44:46.557Z,9.50
2017-04-25T07:45:47.223Z,9.60
2017-04-25T07:46:47.129Z,9.90
2017-04-25T07:47:47.045Z,10.10
2017-04-25T07:48:47.023Z,10.20
2017-04-25T07:49:46.933Z,10.80
2017-04-25T07:50:46.893Z,10.80
2017-04-25T07:51:47.729Z,10.60
2017-04-25T07:52:48.456Z,10.90
2017-04-25T07:53:49.096Z,11.10
2017-04-25T07:54:49.023Z,11.10
2017-04-25T07:55:48.965Z,11.20
2017-04-25T07:56:49.821Z,11.50
2017-04-25T07:57:49.743Z,11.10
2017-04-25T07:58:49.673Z,10.80
2017-04-25T07:59:49.626Z,10.80
2017-04-25T08:00:49.600Z,10.90
2017-04-25T08:01:49.526Z,11.30
2017-04-25T08:02:50.282Z,11.20
2017-04-25T08:03:50.347Z,11.30
2017-04-25T08:04:51.017Z,11.10
2017-04-25T08:05:50.996Z,11.10
2017-04-25T08:06:50.922Z,10.70
2017-04-25T08:07:50.953Z,10.90
2017-04-25T08:08:50.900Z,10.90
2017-04-25T08:09:51.569Z,10.80
2017-04-25T08:10:51.601Z,10.90
2017-04-25T08:11:51.543Z,11.10
2017-04-25T08:12:52.203Z,11.20
2017-04-25T08:13:52.109Z,11.20
2017-04-25T08:14:52.035Z,10.80
2017-04-25T08:15:51.990Z,10.80
2017-04-25T08:16:51.901Z,10.80
2017-04-25T08:17:51.849Z,10.40
2017-04-25T08:18:55.229Z,10.40
2017-04-25T08:19:56.816Z,10.40
2017-04-25T08:20:59.121Z,10.60
2017-04-25T08:21:59.665Z,10.70
2017-04-25T08:22:59.635Z,11.10
2017-04-25T08:23:59.766Z,11.60
2017-04-25T08:24:59.617Z,11.90
2017-04-25T08:25:59.493Z,12.50
2017-04-25T08:26:59.381Z,12.80
2017-04-25T08:27:59.269Z,13.10
2017-04-25T08:28:59.140Z,13.00
2017-04-25T08:29:59.042Z,13.00
2017-04-25T08:30:58.946Z,13.50
2017-04-25T08:32:00.594Z,13.60
2017-04-25T08:33:01.218Z,14.00
2017-04-25T08:34:03.397Z,13.90
2017-04-25T08:35:04.126Z,14.30
2017-04-25T08:36:04.132Z,14.50
2017-04-25T08:37:04.106Z,15.10
2017-04-25T08:38:04.782Z,15.00
2017-04-25T08:39:06.273Z,14.90
2017-04-25T08:40:06.143Z,14.30
2017-04-25T08:41:05.994Z,14.30
2017-04-25T08:42:05.870Z,14.30
2017-04-25T08:43:06.603Z,13.90
2017-04-25T08:44:07.247Z,13.40
2017-04-25T08:45:07.119Z,13.30
2017-04-25T08:46:07.802Z,12.90
2017-04-25T08:47:07.964Z,12.30
2017-04-25T08:48:08.600Z,12.00
2017-04-25T08:49:08.530Z,11.60
2017-04-25T08:50:08.416Z,11.60
2017-04-25T08:51:08.397Z,12.10
2017-04-25T08:52:09.061Z,12.20
2017-04-25T08:53:08.944Z,12.60
2017-04-25T08:54:08.827Z,12.00
2017-04-25T08:55:08.727Z,12.00
2017-04-25T08:56:09.337Z,11.50
2017-04-25T08:57:10.033Z,11.50
2017-04-25T08:58:09.930Z,12.10
2017-04-25T08:59:09.797Z,12.00
2017-04-25T09:00:09.721Z,11.90
2017-04-25T09:01:09.622Z,12.00
2017-04-25T09:02:09.549Z,11.90
2017-04-25T09:03:09.446Z,12.00
2017-04-25T09:04:09.337Z,11.80
2017-04-25T09:05:09.221Z,11.80
2017-04-25T09:06:09.197Z,12.10
2017-04-25T09:07:09.050Z,11.90
2017-04-25T09:08:08.934Z,11.80
2017-04-25T09:09:08.827Z,11.50
2017-04-25T09:10:08.705Z,11.10
2017-04-25T09:11:09.381Z,10.90
2017-04-25T09:12:09.268Z,10.80
2017-04-25T09:13:09.157Z,10.70
2017-04-25T09:14:09.119Z,10.90
2017-04-25T09:15:09.017Z,10.70
2017-04-25T09:16:08.923Z,10.80
2017-04-25T09:17:08.791Z,11.20
2017-04-25T09:18:08.658Z,11.80
2017-04-25T09:19:09.300Z,11.90
2017-04-25T09:20:09.187Z,11.90
2017-04-25T09:21:09.813Z,11.60
2017-04-25T09:22:10.424Z,11.60
2017-04-25T09:23:10.413Z,11.80
2017-04-25T09:24:10.889Z,11.50
2017-04-25T09:25:10.762Z,11.50
2017-04-25T09:26:11.398Z,11.50
2017-04-25T09:27:11.281Z,11.60
2017-04-25T09:28:14.854Z,11.60
2017-04-25T09:29:14.733Z,11.60
2017-04-25T09:30:14.644Z,11.60
2017-04-25T09:31:14.555Z,11.30
2017-04-25T09:32:14.526Z,11.10
2017-04-25T09:33:15.129Z,10.90
2017-04-25T09:34:15.077Z,10.90
2017-04-25T09:35:14.981Z,11.30
2017-04-25T09:36:14.944Z,11.30
2017-04-25T09:37:15.538Z,11.20
2017-04-25T09:39:15.509Z,11.20
2017-04-25T09:40:15.440Z,11.10
2017-04-25T09:41:15.364Z,11.10
2017-04-25T09:42:16.006Z,11.20
2017-04-25T09:43:15.885Z,11.10
2017-04-25T09:44:16.521Z,11.10
2017-04-25T09:45:17.206Z,10.90
2017-04-25T09:46:17.087Z,11.20
2017-04-25T09:47:16.957Z,11.00
2017-04-25T09:48:16.866Z,11.50
2017-04-25T09:49:16.742Z,11.50
2017-04-25T09:50:16.617Z,11.60
2017-04-25T09:51:16.520Z,11.50
2017-04-25T09:52:16.565Z,11.60
2017-04-25T09:53:17.842Z,11.40
2017-04-25T09:54:17.748Z,11.50
2017-04-25T09:55:17.605Z,11.60
2017-04-25T09:56:18.753Z,11.50
2017-04-25T09:57:19.368Z,11.50
2017-04-25T09:58:20.096Z,11.40
2017-04-25T09:59:20.709Z,11.10
2017-04-25T10:00:21.324Z,10.90
2017-04-25T10:01:21.993Z,10.90
2017-04-25T10:02:21.861Z,10.90
2017-04-25T10:03:23.729Z,10.80
2017-04-25T10:04:23.677Z,11.10
2017-04-25T10:05:23.605Z,11.90
2017-04-25T10:06:23.588Z,12.00
2017-04-25T10:07:23.486Z,12.60
2017-04-25T10:08:23.403Z,13.10
2017-04-25T10:09:23.317Z,13.00
2017-04-25T10:10:23.189Z,12.80
2017-04-25T10:11:23.118Z,12.70
2017-04-25T10:12:22.990Z,12.30
2017-04-25T10:13:23.075Z,12.00
2017-04-25T10:14:23.667Z,12.30
2017-04-25T10:15:24.284Z,13.10
2017-04-25T10:16:24.161Z,13.90
2017-04-25T10:17:24.019Z,14.50
2017-04-25T10:18:24.732Z,14.20
2017-04-25T10:19:25.378Z,13.90
2017-04-25T10:20:25.245Z,13.40
2017-04-25T10:21:25.146Z,13.40
2017-04-25T10:22:25.148Z,13.40
2017-04-25T10:23:25.053Z,13.40
2017-04-25T10:24:24.974Z,13.50
2017-04-25T10:25:25.787Z,13.00
2017-04-25T10:26:25.639Z,13.00
2017-04-25T10:27:25.529Z,12.40
2017-04-25T10:28:26.247Z,12.30
2017-04-25T10:29:26.863Z,12.10
2017-04-25T10:30:27.489Z,11.80
2017-04-25T10:31:27.396Z,11.70
2017-04-25T10:32:27.986Z,11.20
2017-04-25T10:33:27.912Z,10.80
2017-04-25T10:34:28.573Z,10.70
2017-04-25T10:35:28.485Z,10.60
2017-04-25T10:36:28.405Z,10.80
2017-04-25T10:37:28.284Z,10.80
2017-04-25T10:38:28.177Z,10.80
2017-04-25T10:39:28.062Z,10.80
2017-04-25T10:40:27.931Z,10.80
2017-04-25T10:41:27.832Z,10.90
2017-04-25T10:42:27.911Z,11.40
2017-04-25T10:43:27.842Z,12.20
2017-04-25T10:44:28.649Z,12.90
2017-04-25T10:45:28.514Z,14.10
2017-04-25T10:46:28.382Z,14.60
2017-04-25T10:47:28.829Z,15.50
2017-04-25T10:48:28.703Z,15.00
2017-04-25T10:49:28.608Z,14.90
2017-04-25T10:50:28.485Z,14.40
2017-04-25T10:51:28.400Z,14.40
2017-04-25T10:52:28.311Z,14.30
2017-04-25T10:53:28.232Z,14.00
2017-04-25T10:54:28.865Z,14.40
2017-04-25T10:55:28.752Z,15.10
2017-04-25T10:56:28.640Z,16.20
2017-04-25T10:57:28.552Z,16.80
2017-04-25T10:58:28.442Z,17.80
2017-04-25T10:59:28.397Z,18.40
2017-04-25T11:00:29.005Z,18.60
2017-04-25T11:01:29.846Z,18.80
2017-04-25T11:02:30.484Z,18.00
2017-04-25T11:03:30.333Z,17.70
2017-04-25T11:04:30.228Z,17.40
2017-04-25T11:05:30.088Z,17.20
2017-04-25T11:06:29.956Z,16.80
2017-04-25T11:07:30.649Z,17.10
2017-04-25T11:08:30.533Z,17.30
2017-04-25T11:09:30.526Z,17.30
2017-04-25T11:10:30.381Z,17.20
2017-04-25T11:11:30.264Z,16.70
2017-04-25T11:12:30.165Z,15.60
2017-04-25T11:13:30.045Z,15.00
2017-04-25T11:14:30.002Z,15.00
2017-04-25T11:15:29.915Z,15.10
2017-04-25T11:16:30.518Z,14.90
2017-04-25T11:17:30.401Z,15.60
2017-04-25T11:18:30.302Z,16.30
2017-04-25T11:19:30.212Z,16.90
2017-04-25T11:20:30.089Z,17.40
2017-04-25T11:21:29.977Z,17.40
2017-04-25T11:22:29.877Z,17.60
2017-04-25T11:23:29.753Z,17.30
2017-04-25T11:24:29.705Z,17.80
2017-04-25T11:25:29.628Z,18.80
2017-04-25T11:26:29.544Z,19.00
2017-04-25T11:27:29.456Z,19.10
2017-04-25T11:28:29.457Z,19.40
2017-04-25T11:29:29.416Z,19.50
2017-04-25T11:30:29.345Z,19.00
2017-04-25T11:31:29.309Z,17.80
2017-04-25T11:32:29.964Z,16.70
2017-04-25T11:33:29.894Z,16.10
2017-04-25T11:34:29.896Z,16.10
2017-04-25T11:35:29.839Z,16.10
2017-04-25T11:36:30.484Z,16.30
2017-04-25T11:37:31.320Z,15.30
2017-04-25T11:38:31.229Z,15.00
2017-04-25T11:39:31.151Z,14.50
2017-04-25T11:40:31.394Z,14.50
2017-04-25T11:41:31.330Z,15.60
2017-04-25T11:42:32.232Z,16.00
2017-04-25T11:43:32.174Z,16.50
2017-04-25T11:44:33.038Z,17.40
2017-04-25T11:45:33.002Z,17.80
2017-04-25T11:46:32.900Z,18.30
2017-04-25T11:47:33.557Z,17.40
2017-04-25T11:48:33.450Z,16.80
2017-04-25T11:49:33.605Z,16.10
2017-04-25T11:50:33.546Z,15.80
2017-04-25T11:51:33.447Z,16.60
2017-04-25T11:52:33.571Z,17.10
2017-04-25T11:53:33.489Z,17.10
2017-04-25T11:54:33.379Z,16.10
2017-04-25T11:55:33.485Z,15.40
2017-04-25T11:56:34.131Z,14.50
2017-04-25T11:57:34.067Z,14.10
2017-04-25T11:58:34.034Z,13.70
2017-04-25T11:59:34.125Z,13.50
2017-04-25T12:00:34.851Z,13.90
2017-04-25T12:01:34.796Z,14.40
2017-04-25T12:02:34.809Z,15.20
2017-04-25T12:03:34.755Z,16.20
2017-04-25T12:04:35.386Z,16.80
2017-04-25T12:05:35.336Z,18.00
2017-04-25T12:06:35.237Z,19.20
2017-04-25T12:07:35.369Z,19.40
2017-04-25T12:09:35.421Z,19.30
2017-04-25T12:10:35.466Z,19.00
2017-04-25T12:11:35.413Z,18.00
2017-04-25T12:12:36.056Z,16.90
2017-04-25T12:13:36.282Z,16.10
2017-04-25T12:14:36.222Z,15.50
2017-04-25T12:15:36.232Z,14.40
2017-04-25T12:16:36.165Z,13.80
2017-04-25T12:17:37.221Z,13.50
2017-04-25T12:18:37.190Z,13.10
2017-04-25T12:19:37.097Z,13.00
2017-04-25T12:20:37.058Z,13.10
2017-04-25T12:21:37.082Z,13.50
2017-04-25T12:22:37.000Z,13.80
2017-04-25T12:23:36.910Z,13.80
2017-04-25T12:24:36.841Z,14.30
2017-04-25T12:25:37.562Z,15.00
2017-04-25T12:26:37.485Z,15.80
2017-04-25T12:27:38.203Z,16.80
2017-04-25T12:28:38.905Z,17.10
2017-04-25T12:29:39.655Z,17.00
2017-04-25T12:30:39.638Z,16.50
2017-04-25T12:31:40.346Z,16.50
2017-04-25T12:32:40.389Z,16.00
2017-04-25T12:33:41.113Z,15.60
2017-04-25T12:34:41.734Z,15.00
2017-04-25T12:35:41.669Z,14.40
2017-04-25T12:36:41.584Z,14.50
2017-04-25T12:37:41.515Z,13.90
2017-04-25T12:38:41.436Z,14.00
2017-04-25T12:39:42.093Z,13.50
2017-04-25T12:40:42.079Z,13.50
2017-04-25T12:41:42.115Z,13.50
2017-04-25T12:42:42.070Z,13.10
2017-04-25T12:44:42.212Z,12.60
2017-04-25T12:45:42.933Z,12.80
2017-04-25T12:46:42.875Z,12.70
2017-04-25T12:47:42.842Z,12.40
2017-04-25T12:48:42.784Z,12.20
2017-04-25T12:49:43.404Z,12.20
2017-04-25T12:50:43.449Z,12.00
2017-04-25T12:51:43.479Z,12.10
2017-04-25T12:52:44.231Z,12.20
2017-04-25T12:53:44.245Z,12.00
2017-04-25T12:54:44.385Z,11.90
2017-04-25T12:55:44.365Z,11.90
2017-04-25T12:56:44.381Z,11.90
2017-04-25T12:57:44.633Z,12.00
2017-04-25T12:58:45.345Z,12.70
2017-04-25T12:59:45.285Z,13.00
2017-04-25T13:00:45.287Z,13.00
2017-04-25T13:01:45.262Z,12.90
2017-04-25T13:02:45.210Z,13.50
2017-04-25T13:03:45.102Z,14.10
2017-04-25T13:04:45.111Z,15.20
2017-04-25T13:05:45.760Z,16.20
2017-04-25T13:06:45.733Z,17.30
2017-04-25T13:07:45.654Z,17.50
2017-04-25T13:08:45.599Z,17.90
2017-04-25T13:10:45.696Z,19.00
2017-04-25T13:11:45.680Z,19.30
2017-04-25T13:12:45.830Z,19.30
2017-04-25T13:13:45.788Z,18.70
2017-04-25T13:14:46.448Z,18.00
2017-04-25T13:15:46.380Z,18.00
2017-04-25T13:16:47.060Z,17.90
2017-04-25T13:17:46.982Z,18.40
2017-04-25T13:18:46.947Z,18.40
2017-04-25T13:19:46.952Z,18.40
2017-04-25T13:20:47.676Z,17.70
2017-04-25T13:21:48.367Z,17.10